NATURA VA

 METAR AND TAF INFORMATION
METAR FOR LEHC
ADDS - METARS form results

(1657 UTC 26 March 2019)
Data provider http://aviationweather.gov/metar/data/
 
METAR text: LEHC 261630Z AUTO 21010KT 170V240 9999 NCD 18/M07 Q1019
Conditions at: LEHC (HUESCA-PIRINEOS , ES) observed 1630 UTC 26 March 2019
Temperature: 18.0°C (64°F)
Dewpoint: -7.0°C (19°F) [RH = 18%]
Pressure (altimeter): 30.09 inches Hg (1019.0 mb)
Winds: from the SSW (210 degrees) at 12 MPH (10 knots; 5.1 m/s)
Visibility: 6 or more miles (10+ km)
Ceiling: at least 12,000 feet AGL
Clouds: sky clear below 12,000 feet AGL
Weather: no significant weather observed at this time

METAR text: LEHC 261600Z 22010KT 190V250 CAVOK 18/M06 Q1019
Conditions at: LEHC (HUESCA-PIRINEOS , ES) observed 1600 UTC 26 March 2019
Temperature: 18.0°C (64°F)
Dewpoint: -6.0°C (21°F) [RH = 19%]
Pressure (altimeter): 30.09 inches Hg (1019.0 mb)
Winds: from the SW (220 degrees) at 12 MPH (10 knots; 5.1 m/s)
Visibility: 6 or more miles (10+ km)
Ceiling: ceiling and visibility are OK
Clouds: unknown
Weather: no significant weather observed at this time

Forecast for: LEHC (HUESCA-PIRINEOS , ES)
Text: TAF LEHC 261400Z 2615/2715 25008KT CAVOK TX19/2713Z TN03/2706Z
Forecast period: 1500 to 2000 UTC 26 March 2019
Forecast type: FROM: standard forecast or significant change
Winds: from the WSW (250 degrees) at 9 MPH (8 knots; 4.1 m/s)
Visibility: 6 or more miles 10+ km)
Ceiling: unknown
Clouds: missing
Weather: no significant weather forecast for this period
Text: TEMPO 2615/2620 05012KT
Forecast period: 1500 to 2000 UTC 26 March 2019
Forecast type: TEMPORARY: The following changes expected for less than half the time period
Winds: from the NE (50 degrees) at 14 MPH (12 knots; 6.2 m/s)
Visibility: missing
Ceiling: unknown
Clouds: missing
Weather: no significant weather forecast for this period
Text: BECMG 2620/2622 05008KT
Forecast period: 2000 UTC 26 March 2019 to 0600 UTC 27 March 2019
Forecast type: BECOMING: Conditions expected to become as follows by 2200 UTC 26 March 2019
Winds: from the NE (50 degrees) at 9 MPH (8 knots; 4.1 m/s)
Visibility: 6 or more miles 10+ km)
Ceiling: unknown
Clouds: missing
Weather: no significant weather forecast for this period
Text: BECMG 2706/2709 25009KT
Forecast period: 0600 to 1500 UTC 27 March 2019
Forecast type: BECOMING: Conditions expected to become as follows by 0900 UTC 27 March 2019
Winds: from the WSW (250 degrees) at 10 MPH (9 knots; 4.6 m/s)
Visibility: 6 or more miles 10+ km)
Ceiling: unknown
Clouds: missing
Weather: no significant weather forecast for this period

 AIRPORT MAP

 RUNWAY INFORMATION

 AIRPORT FREQUENCIES

 AIRPORT NEAR NAVIGATION AIDS



Powered by Virtual Airlines Manager [v2.6.2]